sensor_id;sensor_type;location;lat;lon;timestamp;P1;durP1;ratioP1;P2;durP2;ratioP2
34876;SDS011;21086;44.780;17.194;2023-10-19T00:01:17;13.40;;;12.00;;
34876;SDS011;21086;44.780;17.194;2023-10-19T00:04:05;15.68;;;12.95;;
34876;SDS011;21086;44.780;17.194;2023-10-19T00:06:54;14.80;;;13.13;;
34876;SDS011;21086;44.780;17.194;2023-10-19T00:09:42;14.07;;;12.57;;
34876;SDS011;21086;44.780;17.194;2023-10-19T00:12:33;14.57;;;12.85;;
34876;SDS011;21086;44.780;17.194;2023-10-19T00:15:20;15.30;;;12.32;;
34876;SDS011;21086;44.780;17.194;2023-10-19T00:18:12;13.05;;;11.60;;
34876;SDS011;21086;44.780;17.194;2023-10-19T00:21:09;13.85;;;12.27;;
34876;SDS011;21086;44.780;17.194;2023-10-19T00:24:06;14.10;;;12.70;;
34876;SDS011;21086;44.780;17.194;2023-10-19T00:26:56;14.10;;;12.52;;
34876;SDS011;21086;44.780;17.194;2023-10-19T00:29:43;14.88;;;12.75;;
34876;SDS011;21086;44.780;17.194;2023-10-19T00:32:42;13.77;;;12.38;;
34876;SDS011;21086;44.780;17.194;2023-10-19T00:35:30;14.05;;;12.57;;
34876;SDS011;21086;44.780;17.194;2023-10-19T00:38:23;14.35;;;11.90;;
34876;SDS011;21086;44.780;17.194;2023-10-19T00:41:14;13.45;;;11.68;;
34876;SDS011;21086;44.780;17.194;2023-10-19T00:44:08;13.68;;;12.32;;
34876;SDS011;21086;44.780;17.194;2023-10-19T00:46:59;14.43;;;13.02;;
34876;SDS011;21086;44.780;17.194;2023-10-19T00:49:59;13.90;;;12.35;;
34876;SDS011;21086;44.780;17.194;2023-10-19T00:52:50;14.40;;;11.77;;
34876;SDS011;21086;44.780;17.194;2023-10-19T00:55:38;15.07;;;12.50;;
34876;SDS011;21086;44.780;17.194;2023-10-19T00:58:26;12.90;;;11.60;;
34876;SDS011;21086;44.780;17.194;2023-10-19T01:01:17;14.02;;;12.13;;
34876;SDS011;21086;44.780;17.194;2023-10-19T01:04:14;13.82;;;12.23;;
34876;SDS011;21086;44.780;17.194;2023-10-19T01:07:03;15.30;;;12.57;;
34876;SDS011;21086;44.780;17.194;2023-10-19T01:10:00;13.15;;;11.80;;
34876;SDS011;21086;44.780;17.194;2023-10-19T01:12:52;12.93;;;11.63;;
34876;SDS011;21086;44.780;17.194;2023-10-19T01:15:39;12.65;;;11.20;;
34876;SDS011;21086;44.780;17.194;2023-10-19T01:18:27;17.00;;;12.85;;
34876;SDS011;21086;44.780;17.194;2023-10-19T01:21:16;14.10;;;12.35;;
34876;SDS011;21086;44.780;17.194;2023-10-19T01:24:07;16.45;;;12.48;;
34876;SDS011;21086;44.780;17.194;2023-10-19T01:26:55;13.30;;;11.90;;
34876;SDS011;21086;44.780;17.194;2023-10-19T01:29:43;13.68;;;11.85;;
34876;SDS011;21086;44.780;17.194;2023-10-19T01:32:31;13.32;;;11.23;;
34876;SDS011;21086;44.780;17.194;2023-10-19T01:35:18;12.38;;;10.38;;
34876;SDS011;21086;44.780;17.194;2023-10-19T01:38:06;12.05;;;10.48;;
34876;SDS011;21086;44.780;17.194;2023-10-19T01:40:54;10.55;;;9.48;;
34876;SDS011;21086;44.780;17.194;2023-10-19T01:43:43;11.60;;;10.40;;
34876;SDS011;21086;44.780;17.194;2023-10-19T01:46:35;12.45;;;11.10;;
34876;SDS011;21086;44.780;17.194;2023-10-19T01:49:23;11.25;;;10.10;;
34876;SDS011;21086;44.780;17.194;2023-10-19T01:52:14;12.73;;;11.07;;
34876;SDS011;21086;44.780;17.194;2023-10-19T01:55:02;11.75;;;10.55;;
34876;SDS011;21086;44.780;17.194;2023-10-19T01:57:54;12.43;;;10.98;;
34876;SDS011;21086;44.780;17.194;2023-10-19T02:00:41;11.75;;;10.55;;
34876;SDS011;21086;44.780;17.194;2023-10-19T02:03:30;12.27;;;11.00;;
34876;SDS011;21086;44.780;17.194;2023-10-19T02:06:19;13.35;;;11.23;;
34876;SDS011;21086;44.780;17.194;2023-10-19T02:09:10;15.75;;;11.18;;
34876;SDS011;21086;44.780;17.194;2023-10-19T02:12:13;12.88;;;11.48;;
34876;SDS011;21086;44.780;17.194;2023-10-19T02:15:00;12.52;;;11.23;;
34876;SDS011;21086;44.780;17.194;2023-10-19T02:17:48;12.05;;;10.82;;
34876;SDS011;21086;44.780;17.194;2023-10-19T02:20:37;12.57;;;11.30;;
34876;SDS011;21086;44.780;17.194;2023-10-19T02:23:28;12.73;;;11.43;;
34876;SDS011;21086;44.780;17.194;2023-10-19T02:26:15;15.48;;;11.25;;
34876;SDS011;21086;44.780;17.194;2023-10-19T02:29:15;14.43;;;10.90;;
34876;SDS011;21086;44.780;17.194;2023-10-19T02:34:30;11.55;;;10.30;;
34876;SDS011;21086;44.780;17.194;2023-10-19T02:39:51;10.60;;;9.50;;
34876;SDS011;21086;44.780;17.194;2023-10-19T02:42:39;12.13;;;10.70;;
34876;SDS011;21086;44.780;17.194;2023-10-19T02:50:57;14.13;;;10.85;;
34876;SDS011;21086;44.780;17.194;2023-10-19T02:53:52;15.15;;;10.95;;
34876;SDS011;21086;44.780;17.194;2023-10-19T02:56:40;11.43;;;10.23;;
34876;SDS011;21086;44.780;17.194;2023-10-19T02:59:29;14.35;;;11.13;;
34876;SDS011;21086;44.780;17.194;2023-10-19T03:02:18;12.30;;;10.48;;
34876;SDS011;21086;44.780;17.194;2023-10-19T03:05:16;12.30;;;10.25;;
34876;SDS011;21086;44.780;17.194;2023-10-19T03:08:07;11.30;;;10.00;;
34876;SDS011;21086;44.780;17.194;2023-10-19T03:10:54;12.45;;;10.25;;
34876;SDS011;21086;44.780;17.194;2023-10-19T03:13:50;13.60;;;10.63;;
34876;SDS011;21086;44.780;17.194;2023-10-19T03:16:38;10.52;;;9.50;;
34876;SDS011;21086;44.780;17.194;2023-10-19T03:19:29;10.95;;;9.75;;
34876;SDS011;21086;44.780;17.194;2023-10-19T03:22:16;14.63;;;11.93;;
34876;SDS011;21086;44.780;17.194;2023-10-19T03:25:05;14.18;;;12.23;;
34876;SDS011;21086;44.780;17.194;2023-10-19T03:28:12;11.82;;;10.50;;
34876;SDS011;21086;44.780;17.194;2023-10-19T03:30:59;11.57;;;10.35;;
34876;SDS011;21086;44.780;17.194;2023-10-19T03:33:47;16.55;;;11.40;;
34876;SDS011;21086;44.780;17.194;2023-10-19T03:36:37;18.58;;;11.82;;
34876;SDS011;21086;44.780;17.194;2023-10-19T03:39:24;14.90;;;12.40;;
34876;SDS011;21086;44.780;17.194;2023-10-19T03:42:12;18.20;;;14.38;;
34876;SDS011;21086;44.780;17.194;2023-10-19T03:45:03;15.95;;;13.23;;
34876;SDS011;21086;44.780;17.194;2023-10-19T03:47:59;23.15;;;16.45;;
34876;SDS011;21086;44.780;17.194;2023-10-19T03:50:53;22.15;;;16.23;;
34876;SDS011;21086;44.780;17.194;2023-10-19T03:53:42;22.05;;;16.27;;
34876;SDS011;21086;44.780;17.194;2023-10-19T03:56:41;16.08;;;12.98;;
34876;SDS011;21086;44.780;17.194;2023-10-19T03:59:28;18.05;;;12.75;;
34876;SDS011;21086;44.780;17.194;2023-10-19T04:02:21;13.95;;;10.50;;
34876;SDS011;21086;44.780;17.194;2023-10-19T04:05:08;14.38;;;11.15;;
34876;SDS011;21086;44.780;17.194;2023-10-19T04:08:01;12.23;;;10.10;;
34876;SDS011;21086;44.780;17.194;2023-10-19T04:10:54;13.15;;;11.15;;
34876;SDS011;21086;44.780;17.194;2023-10-19T04:14:02;11.57;;;10.35;;
34876;SDS011;21086;44.780;17.194;2023-10-19T04:16:50;11.85;;;10.65;;
34876;SDS011;21086;44.780;17.194;2023-10-19T04:22:13;11.63;;;10.43;;
34876;SDS011;21086;44.780;17.194;2023-10-19T04:25:09;13.65;;;12.25;;
34876;SDS011;21086;44.780;17.194;2023-10-19T04:27:59;14.20;;;11.27;;
34876;SDS011;21086;44.780;17.194;2023-10-19T04:38:53;11.85;;;10.65;;
34876;SDS011;21086;44.780;17.194;2023-10-19T04:41:42;11.48;;;10.35;;
34876;SDS011;21086;44.780;17.194;2023-10-19T04:47:19;10.50;;;9.40;;
34876;SDS011;21086;44.780;17.194;2023-10-19T04:53:08;12.75;;;9.90;;
34876;SDS011;21086;44.780;17.194;2023-10-19T04:55:55;11.93;;;10.73;;
34876;SDS011;21086;44.780;17.194;2023-10-19T05:07:24;11.52;;;10.35;;
34876;SDS011;21086;44.780;17.194;2023-10-19T05:18:44;10.02;;;9.02;;
34876;SDS011;21086;44.780;17.194;2023-10-19T05:24:41;10.30;;;9.18;;
34876;SDS011;21086;44.780;17.194;2023-10-19T05:30:17;12.10;;;7.97;;
34876;SDS011;21086;44.780;17.194;2023-10-19T05:33:05;9.43;;;8.23;;
34876;SDS011;21086;44.780;17.194;2023-10-19T05:35:52;11.13;;;8.25;;
34876;SDS011;21086;44.780;17.194;2023-10-19T05:38:40;9.95;;;8.60;;
34876;SDS011;21086;44.780;17.194;2023-10-19T05:41:27;12.38;;;9.27;;
34876;SDS011;21086;44.780;17.194;2023-10-19T05:44:17;11.20;;;9.40;;
34876;SDS011;21086;44.780;17.194;2023-10-19T05:47:05;12.27;;;10.10;;
34876;SDS011;21086;44.780;17.194;2023-10-19T05:49:53;12.38;;;10.07;;
34876;SDS011;21086;44.780;17.194;2023-10-19T05:52:41;16.67;;;10.90;;
34876;SDS011;21086;44.780;17.194;2023-10-19T05:55:30;12.43;;;10.65;;
34876;SDS011;21086;44.780;17.194;2023-10-19T05:58:18;13.75;;;11.15;;
34876;SDS011;21086;44.780;17.194;2023-10-19T06:01:07;12.50;;;10.70;;
34876;SDS011;21086;44.780;17.194;2023-10-19T06:03:54;10.77;;;9.07;;
34876;SDS011;21086;44.780;17.194;2023-10-19T06:06:41;12.13;;;10.27;;
34876;SDS011;21086;44.780;17.194;2023-10-19T06:09:29;12.52;;;9.95;;
34876;SDS011;21086;44.780;17.194;2023-10-19T06:12:16;11.15;;;9.55;;
34876;SDS011;21086;44.780;17.194;2023-10-19T06:15:03;13.32;;;10.75;;
34876;SDS011;21086;44.780;17.194;2023-10-19T06:17:51;13.18;;;10.43;;
34876;SDS011;21086;44.780;17.194;2023-10-19T06:20:46;11.60;;;10.18;;
34876;SDS011;21086;44.780;17.194;2023-10-19T06:23:34;12.75;;;9.85;;
34876;SDS011;21086;44.780;17.194;2023-10-19T06:26:22;11.50;;;9.07;;
34876;SDS011;21086;44.780;17.194;2023-10-19T06:29:10;11.60;;;9.45;;
34876;SDS011;21086;44.780;17.194;2023-10-19T06:31:57;13.10;;;10.27;;
34876;SDS011;21086;44.780;17.194;2023-10-19T06:34:45;10.10;;;9.00;;
34876;SDS011;21086;44.780;17.194;2023-10-19T06:37:33;10.57;;;9.13;;
34876;SDS011;21086;44.780;17.194;2023-10-19T06:40:20;11.30;;;9.43;;
34876;SDS011;21086;44.780;17.194;2023-10-19T06:43:08;10.95;;;9.85;;
34876;SDS011;21086;44.780;17.194;2023-10-19T06:45:56;12.10;;;9.95;;
34876;SDS011;21086;44.780;17.194;2023-10-19T06:48:43;11.77;;;10.57;;
34876;SDS011;21086;44.780;17.194;2023-10-19T06:51:31;13.43;;;10.57;;
34876;SDS011;21086;44.780;17.194;2023-10-19T06:54:20;12.90;;;10.32;;
34876;SDS011;21086;44.780;17.194;2023-10-19T07:02:28;11.32;;;8.90;;
34876;SDS011;21086;44.780;17.194;2023-10-19T07:05:16;10.90;;;9.80;;
34876;SDS011;21086;44.780;17.194;2023-10-19T07:08:10;12.25;;;9.20;;
34876;SDS011;21086;44.780;17.194;2023-10-19T07:10:58;10.65;;;8.80;;
34876;SDS011;21086;44.780;17.194;2023-10-19T07:13:46;9.85;;;8.95;;
34876;SDS011;21086;44.780;17.194;2023-10-19T07:16:34;10.13;;;9.02;;
34876;SDS011;21086;44.780;17.194;2023-10-19T07:19:21;17.00;;;9.93;;
34876;SDS011;21086;44.780;17.194;2023-10-19T07:22:09;17.20;;;10.73;;
34876;SDS011;21086;44.780;17.194;2023-10-19T07:24:56;15.63;;;10.07;;
34876;SDS011;21086;44.780;17.194;2023-10-19T07:27:44;12.15;;;9.93;;
34876;SDS011;21086;44.780;17.194;2023-10-19T07:30:31;12.73;;;10.57;;
34876;SDS011;21086;44.780;17.194;2023-10-19T07:33:19;13.95;;;10.23;;
34876;SDS011;21086;44.780;17.194;2023-10-19T07:36:11;11.63;;;10.43;;
34876;SDS011;21086;44.780;17.194;2023-10-19T07:39:01;13.02;;;11.82;;
34876;SDS011;21086;44.780;17.194;2023-10-19T07:41:48;11.50;;;10.40;;
34876;SDS011;21086;44.780;17.194;2023-10-19T07:44:36;16.63;;;10.15;;
34876;SDS011;21086;44.780;17.194;2023-10-19T07:47:24;12.98;;;10.07;;
34876;SDS011;21086;44.780;17.194;2023-10-19T07:50:11;12.75;;;10.02;;
34876;SDS011;21086;44.780;17.194;2023-10-19T07:53:02;9.93;;;8.90;;
34876;SDS011;21086;44.780;17.194;2023-10-19T07:55:51;18.85;;;13.43;;
34876;SDS011;21086;44.780;17.194;2023-10-19T07:58:39;9.23;;;4.53;;
34876;SDS011;21086;44.780;17.194;2023-10-19T08:01:28;11.70;;;9.00;;
34876;SDS011;21086;44.780;17.194;2023-10-19T08:04:16;7.25;;;5.13;;
34876;SDS011;21086;44.780;17.194;2023-10-19T08:07:10;6.18;;;4.97;;
34876;SDS011;21086;44.780;17.194;2023-10-19T08:09:58;11.90;;;8.98;;
34876;SDS011;21086;44.780;17.194;2023-10-19T08:12:46;12.90;;;8.65;;
34876;SDS011;21086;44.780;17.194;2023-10-19T08:15:34;12.82;;;8.80;;
34876;SDS011;21086;44.780;17.194;2023-10-19T08:18:23;11.45;;;8.23;;
34876;SDS011;21086;44.780;17.194;2023-10-19T08:21:11;11.75;;;8.13;;
34876;SDS011;21086;44.780;17.194;2023-10-19T08:23:59;11.82;;;8.75;;
34876;SDS011;21086;44.780;17.194;2023-10-19T08:26:51;10.95;;;6.60;;
34876;SDS011;21086;44.780;17.194;2023-10-19T08:29:38;11.38;;;8.68;;
34876;SDS011;21086;44.780;17.194;2023-10-19T08:32:26;6.00;;;4.88;;
34876;SDS011;21086;44.780;17.194;2023-10-19T08:35:14;9.52;;;5.10;;
34876;SDS011;21086;44.780;17.194;2023-10-19T08:38:05;8.10;;;4.68;;
34876;SDS011;21086;44.780;17.194;2023-10-19T08:40:58;6.82;;;5.82;;
34876;SDS011;21086;44.780;17.194;2023-10-19T08:43:46;9.02;;;5.55;;
34876;SDS011;21086;44.780;17.194;2023-10-19T08:46:38;8.23;;;2.17;;
34876;SDS011;21086;44.780;17.194;2023-10-19T08:49:31;4.97;;;2.20;;
34876;SDS011;21086;44.780;17.194;2023-10-19T08:52:21;3.05;;;1.40;;
34876;SDS011;21086;44.780;17.194;2023-10-19T08:55:09;2.90;;;1.45;;
34876;SDS011;21086;44.780;17.194;2023-10-19T08:57:59;14.45;;;2.08;;
34876;SDS011;21086;44.780;17.194;2023-10-19T09:00:50;6.40;;;1.55;;
34876;SDS011;21086;44.780;17.194;2023-10-19T09:03:43;3.28;;;1.42;;
34876;SDS011;21086;44.780;17.194;2023-10-19T09:06:30;2.70;;;1.05;;
34876;SDS011;21086;44.780;17.194;2023-10-19T09:09:28;3.33;;;1.10;;
34876;SDS011;21086;44.780;17.194;2023-10-19T09:12:19;2.47;;;1.08;;
34876;SDS011;21086;44.780;17.194;2023-10-19T09:15:10;1.95;;;0.90;;
34876;SDS011;21086;44.780;17.194;2023-10-19T09:18:16;1.90;;;0.70;;
34876;SDS011;21086;44.780;17.194;2023-10-19T09:21:06;8.13;;;1.83;;
34876;SDS011;21086;44.780;17.194;2023-10-19T09:23:55;2.22;;;0.90;;
34876;SDS011;21086;44.780;17.194;2023-10-19T09:26:43;15.45;;;3.92;;
34876;SDS011;21086;44.780;17.194;2023-10-19T09:29:31;3.90;;;1.45;;
34876;SDS011;21086;44.780;17.194;2023-10-19T09:32:18;1.92;;;0.90;;
34876;SDS011;21086;44.780;17.194;2023-10-19T09:35:06;2.47;;;0.90;;
34876;SDS011;21086;44.780;17.194;2023-10-19T09:37:55;0.90;;;0.45;;
34876;SDS011;21086;44.780;17.194;2023-10-19T09:40:43;2.95;;;1.42;;
34876;SDS011;21086;44.780;17.194;2023-10-19T09:46:23;2.90;;;0.50;;
34876;SDS011;21086;44.780;17.194;2023-10-19T09:49:16;8.43;;;0.80;;
34876;SDS011;21086;44.780;17.194;2023-10-19T09:52:05;1.95;;;0.60;;
34876;SDS011;21086;44.780;17.194;2023-10-19T09:58:06;1.35;;;0.47;;
34876;SDS011;21086;44.780;17.194;2023-10-19T10:01:03;1.98;;;0.70;;
34876;SDS011;21086;44.780;17.194;2023-10-19T10:03:54;2.72;;;0.98;;
34876;SDS011;21086;44.780;17.194;2023-10-19T10:09:38;3.00;;;0.90;;
34876;SDS011;21086;44.780;17.194;2023-10-19T10:12:27;8.13;;;1.88;;
34876;SDS011;21086;44.780;17.194;2023-10-19T10:15:15;1.55;;;0.50;;
34876;SDS011;21086;44.780;17.194;2023-10-19T10:18:11;14.20;;;2.25;;
34876;SDS011;21086;44.780;17.194;2023-10-19T10:21:07;2.28;;;0.77;;
34876;SDS011;21086;44.780;17.194;2023-10-19T10:23:58;8.65;;;2.15;;
34876;SDS011;21086;44.780;17.194;2023-10-19T10:26:59;3.60;;;0.80;;
34876;SDS011;21086;44.780;17.194;2023-10-19T10:29:56;9.88;;;1.50;;
34876;SDS011;21086;44.780;17.194;2023-10-19T10:32:54;4.10;;;0.60;;
34876;SDS011;21086;44.780;17.194;2023-10-19T10:38:34;7.93;;;1.98;;
34876;SDS011;21086;44.780;17.194;2023-10-19T10:41:25;3.63;;;0.80;;
34876;SDS011;21086;44.780;17.194;2023-10-19T10:44:15;3.72;;;0.52;;
34876;SDS011;21086;44.780;17.194;2023-10-19T10:47:02;10.07;;;1.73;;
34876;SDS011;21086;44.780;17.194;2023-10-19T10:52:41;2.75;;;0.80;;
34876;SDS011;21086;44.780;17.194;2023-10-19T10:55:30;5.53;;;1.48;;
34876;SDS011;21086;44.780;17.194;2023-10-19T10:58:17;3.40;;;0.88;;
34876;SDS011;21086;44.780;17.194;2023-10-19T11:01:05;2.90;;;1.05;;
34876;SDS011;21086;44.780;17.194;2023-10-19T11:04:04;2.63;;;0.73;;
34876;SDS011;21086;44.780;17.194;2023-10-19T11:06:58;4.70;;;1.83;;
34876;SDS011;21086;44.780;17.194;2023-10-19T11:09:46;1.25;;;0.47;;
34876;SDS011;21086;44.780;17.194;2023-10-19T11:12:33;2.13;;;0.95;;
34876;SDS011;21086;44.780;17.194;2023-10-19T11:15:22;1.85;;;0.60;;
34876;SDS011;21086;44.780;17.194;2023-10-19T11:18:09;6.80;;;1.02;;
34876;SDS011;21086;44.780;17.194;2023-10-19T11:20:57;3.50;;;0.60;;
34876;SDS011;21086;44.780;17.194;2023-10-19T11:23:51;6.57;;;1.75;;
34876;SDS011;21086;44.780;17.194;2023-10-19T11:26:39;8.23;;;1.55;;
34876;SDS011;21086;44.780;17.194;2023-10-19T11:29:27;8.60;;;1.83;;
34876;SDS011;21086;44.780;17.194;2023-10-19T11:32:16;4.93;;;1.55;;
34876;SDS011;21086;44.780;17.194;2023-10-19T11:35:03;6.38;;;1.35;;
34876;SDS011;21086;44.780;17.194;2023-10-19T11:37:52;4.35;;;1.27;;
34876;SDS011;21086;44.780;17.194;2023-10-19T11:40:41;8.27;;;1.65;;
34876;SDS011;21086;44.780;17.194;2023-10-19T11:43:29;3.72;;;1.08;;
34876;SDS011;21086;44.780;17.194;2023-10-19T11:46:17;3.22;;;0.85;;
34876;SDS011;21086;44.780;17.194;2023-10-19T11:49:05;3.35;;;0.88;;
34876;SDS011;21086;44.780;17.194;2023-10-19T11:51:52;2.33;;;0.80;;
34876;SDS011;21086;44.780;17.194;2023-10-19T11:54:40;13.65;;;1.60;;
34876;SDS011;21086;44.780;17.194;2023-10-19T11:57:29;4.80;;;0.98;;
34876;SDS011;21086;44.780;17.194;2023-10-19T12:00:16;6.63;;;1.88;;
34876;SDS011;21086;44.780;17.194;2023-10-19T12:03:11;1.75;;;0.80;;
34876;SDS011;21086;44.780;17.194;2023-10-19T12:06:00;9.63;;;1.50;;
34876;SDS011;21086;44.780;17.194;2023-10-19T12:08:50;3.97;;;0.82;;
34876;SDS011;21086;44.780;17.194;2023-10-19T12:11:38;3.95;;;0.98;;
34876;SDS011;21086;44.780;17.194;2023-10-19T12:14:27;8.68;;;1.67;;
34876;SDS011;21086;44.780;17.194;2023-10-19T12:17:15;5.32;;;1.60;;
34876;SDS011;21086;44.780;17.194;2023-10-19T12:20:04;3.83;;;1.27;;
34876;SDS011;21086;44.780;17.194;2023-10-19T12:22:53;4.93;;;1.23;;
34876;SDS011;21086;44.780;17.194;2023-10-19T12:25:41;3.55;;;1.10;;
34876;SDS011;21086;44.780;17.194;2023-10-19T12:28:43;2.65;;;1.20;;
34876;SDS011;21086;44.780;17.194;2023-10-19T12:31:35;5.72;;;1.45;;
34876;SDS011;21086;44.780;17.194;2023-10-19T12:34:26;4.50;;;1.23;;
34876;SDS011;21086;44.780;17.194;2023-10-19T12:37:17;4.95;;;1.75;;
34876;SDS011;21086;44.780;17.194;2023-10-19T12:40:04;2.42;;;1.10;;
34876;SDS011;21086;44.780;17.194;2023-10-19T12:43:13;4.82;;;1.20;;
34876;SDS011;21086;44.780;17.194;2023-10-19T12:46:01;2.63;;;0.98;;
34876;SDS011;21086;44.780;17.194;2023-10-19T12:48:48;5.85;;;1.08;;
34876;SDS011;21086;44.780;17.194;2023-10-19T12:51:36;2.35;;;1.15;;
34876;SDS011;21086;44.780;17.194;2023-10-19T12:54:25;3.47;;;1.00;;
34876;SDS011;21086;44.780;17.194;2023-10-19T12:57:14;4.65;;;1.20;;
34876;SDS011;21086;44.780;17.194;2023-10-19T13:00:03;2.80;;;1.30;;
34876;SDS011;21086;44.780;17.194;2023-10-19T13:03:10;4.53;;;0.90;;
34876;SDS011;21086;44.780;17.194;2023-10-19T13:06:02;1.65;;;0.77;;
34876;SDS011;21086;44.780;17.194;2023-10-19T13:08:54;2.50;;;0.90;;
34876;SDS011;21086;44.780;17.194;2023-10-19T13:11:41;5.00;;;1.50;;
34876;SDS011;21086;44.780;17.194;2023-10-19T13:14:32;2.53;;;1.00;;
34876;SDS011;21086;44.780;17.194;2023-10-19T13:17:21;6.60;;;1.15;;
34876;SDS011;21086;44.780;17.194;2023-10-19T13:20:08;5.10;;;0.95;;
34876;SDS011;21086;44.780;17.194;2023-10-19T13:23:05;2.17;;;1.08;;
34876;SDS011;21086;44.780;17.194;2023-10-19T13:25:58;4.93;;;1.38;;
34876;SDS011;21086;44.780;17.194;2023-10-19T13:29:15;2.67;;;1.00;;
34876;SDS011;21086;44.780;17.194;2023-10-19T13:32:04;2.88;;;1.00;;
34876;SDS011;21086;44.780;17.194;2023-10-19T13:34:52;4.68;;;1.48;;
34876;SDS011;21086;44.780;17.194;2023-10-19T13:37:39;3.25;;;1.52;;
34876;SDS011;21086;44.780;17.194;2023-10-19T13:40:27;5.43;;;1.30;;
34876;SDS011;21086;44.780;17.194;2023-10-19T13:43:18;3.67;;;1.10;;
34876;SDS011;21086;44.780;17.194;2023-10-19T13:46:06;5.18;;;1.40;;
34876;SDS011;21086;44.780;17.194;2023-10-19T13:48:53;5.75;;;1.33;;
34876;SDS011;21086;44.780;17.194;2023-10-19T13:51:41;4.25;;;1.58;;
34876;SDS011;21086;44.780;17.194;2023-10-19T13:54:30;4.53;;;1.55;;
34876;SDS011;21086;44.780;17.194;2023-10-19T13:57:18;4.82;;;1.67;;
34876;SDS011;21086;44.780;17.194;2023-10-19T14:00:05;5.78;;;1.55;;
34876;SDS011;21086;44.780;17.194;2023-10-19T14:02:54;4.50;;;1.33;;
34876;SDS011;21086;44.780;17.194;2023-10-19T14:05:43;6.85;;;2.28;;
34876;SDS011;21086;44.780;17.194;2023-10-19T14:08:34;3.05;;;1.27;;
34876;SDS011;21086;44.780;17.194;2023-10-19T14:11:22;3.40;;;1.30;;
34876;SDS011;21086;44.780;17.194;2023-10-19T14:14:10;2.58;;;0.85;;
34876;SDS011;21086;44.780;17.194;2023-10-19T14:16:58;6.47;;;1.23;;
34876;SDS011;21086;44.780;17.194;2023-10-19T14:19:45;2.58;;;0.98;;
34876;SDS011;21086;44.780;17.194;2023-10-19T14:22:32;3.90;;;1.05;;
34876;SDS011;21086;44.780;17.194;2023-10-19T14:25:23;4.30;;;1.40;;
34876;SDS011;21086;44.780;17.194;2023-10-19T14:28:10;4.00;;;1.60;;
34876;SDS011;21086;44.780;17.194;2023-10-19T14:30:58;3.72;;;1.50;;
34876;SDS011;21086;44.780;17.194;2023-10-19T14:33:46;4.00;;;1.40;;
34876;SDS011;21086;44.780;17.194;2023-10-19T14:36:33;1.77;;;0.90;;
34876;SDS011;21086;44.780;17.194;2023-10-19T14:39:20;5.50;;;1.08;;
34876;SDS011;21086;44.780;17.194;2023-10-19T14:42:08;3.53;;;1.00;;
34876;SDS011;21086;44.780;17.194;2023-10-19T14:44:56;3.10;;;1.48;;
34876;SDS011;21086;44.780;17.194;2023-10-19T14:47:47;5.38;;;1.13;;
34876;SDS011;21086;44.780;17.194;2023-10-19T14:50:35;3.08;;;1.02;;
34876;SDS011;21086;44.780;17.194;2023-10-19T14:53:23;3.50;;;1.20;;
34876;SDS011;21086;44.780;17.194;2023-10-19T14:56:12;2.67;;;1.25;;
34876;SDS011;21086;44.780;17.194;2023-10-19T14:58:59;8.50;;;2.10;;
34876;SDS011;21086;44.780;17.194;2023-10-19T15:01:46;11.40;;;2.58;;
34876;SDS011;21086;44.780;17.194;2023-10-19T15:04:34;4.78;;;1.20;;
34876;SDS011;21086;44.780;17.194;2023-10-19T15:07:25;2.97;;;1.33;;
34876;SDS011;21086;44.780;17.194;2023-10-19T15:10:12;3.05;;;1.08;;
34876;SDS011;21086;44.780;17.194;2023-10-19T15:13:00;4.68;;;1.48;;
34876;SDS011;21086;44.780;17.194;2023-10-19T15:15:47;6.60;;;1.40;;
34876;SDS011;21086;44.780;17.194;2023-10-19T15:18:35;2.65;;;1.00;;
34876;SDS011;21086;44.780;17.194;2023-10-19T15:21:23;6.60;;;1.65;;
34876;SDS011;21086;44.780;17.194;2023-10-19T15:24:10;3.85;;;1.00;;
34876;SDS011;21086;44.780;17.194;2023-10-19T15:26:59;4.57;;;1.13;;
34876;SDS011;21086;44.780;17.194;2023-10-19T15:29:46;4.07;;;1.35;;
34876;SDS011;21086;44.780;17.194;2023-10-19T15:32:33;4.32;;;1.30;;
34876;SDS011;21086;44.780;17.194;2023-10-19T15:35:22;4.57;;;1.50;;
34876;SDS011;21086;44.780;17.194;2023-10-19T15:38:10;4.22;;;1.35;;
34876;SDS011;21086;44.780;17.194;2023-10-19T15:40:58;5.35;;;1.65;;
34876;SDS011;21086;44.780;17.194;2023-10-19T15:43:46;2.78;;;1.35;;
34876;SDS011;21086;44.780;17.194;2023-10-19T15:46:33;3.28;;;1.48;;
34876;SDS011;21086;44.780;17.194;2023-10-19T15:49:26;6.03;;;1.48;;
34876;SDS011;21086;44.780;17.194;2023-10-19T15:52:14;4.93;;;1.50;;
34876;SDS011;21086;44.780;17.194;2023-10-19T15:55:06;3.78;;;1.23;;
34876;SDS011;21086;44.780;17.194;2023-10-19T15:57:54;8.73;;;1.95;;
34876;SDS011;21086;44.780;17.194;2023-10-19T16:00:42;5.57;;;1.70;;
34876;SDS011;21086;44.780;17.194;2023-10-19T16:03:30;6.00;;;1.40;;
34876;SDS011;21086;44.780;17.194;2023-10-19T16:06:17;2.33;;;1.17;;
34876;SDS011;21086;44.780;17.194;2023-10-19T16:09:04;7.85;;;1.70;;
34876;SDS011;21086;44.780;17.194;2023-10-19T16:11:52;4.25;;;1.30;;
34876;SDS011;21086;44.780;17.194;2023-10-19T16:14:39;6.03;;;1.40;;
34876;SDS011;21086;44.780;17.194;2023-10-19T16:17:27;4.32;;;1.30;;
34876;SDS011;21086;44.780;17.194;2023-10-19T16:20:15;13.63;;;2.50;;
34876;SDS011;21086;44.780;17.194;2023-10-19T16:23:02;2.97;;;1.20;;
34876;SDS011;21086;44.780;17.194;2023-10-19T16:25:57;14.90;;;2.10;;
34876;SDS011;21086;44.780;17.194;2023-10-19T16:28:49;4.45;;;1.52;;
34876;SDS011;21086;44.780;17.194;2023-10-19T16:31:37;5.82;;;1.40;;
34876;SDS011;21086;44.780;17.194;2023-10-19T16:34:25;9.30;;;2.00;;
34876;SDS011;21086;44.780;17.194;2023-10-19T16:37:12;4.70;;;1.65;;
34876;SDS011;21086;44.780;17.194;2023-10-19T16:40:00;12.13;;;2.97;;
34876;SDS011;21086;44.780;17.194;2023-10-19T16:42:51;11.27;;;2.05;;
34876;SDS011;21086;44.780;17.194;2023-10-19T16:45:40;5.13;;;1.67;;
34876;SDS011;21086;44.780;17.194;2023-10-19T16:48:27;6.13;;;1.98;;
34876;SDS011;21086;44.780;17.194;2023-10-19T16:51:14;8.30;;;1.95;;
34876;SDS011;21086;44.780;17.194;2023-10-19T16:54:02;8.70;;;2.22;;
34876;SDS011;21086;44.780;17.194;2023-10-19T16:56:50;3.33;;;1.40;;
34876;SDS011;21086;44.780;17.194;2023-10-19T16:59:38;6.32;;;1.52;;
34876;SDS011;21086;44.780;17.194;2023-10-19T17:02:25;7.25;;;1.80;;
34876;SDS011;21086;44.780;17.194;2023-10-19T17:05:13;14.77;;;3.88;;
34876;SDS011;21086;44.780;17.194;2023-10-19T17:08:00;4.45;;;1.50;;
34876;SDS011;21086;44.780;17.194;2023-10-19T17:10:49;4.57;;;1.33;;
34876;SDS011;21086;44.780;17.194;2023-10-19T17:13:37;5.88;;;1.45;;
34876;SDS011;21086;44.780;17.194;2023-10-19T17:16:25;3.28;;;1.38;;
34876;SDS011;21086;44.780;17.194;2023-10-19T17:19:13;3.72;;;1.40;;
34876;SDS011;21086;44.780;17.194;2023-10-19T17:22:02;3.83;;;1.75;;
34876;SDS011;21086;44.780;17.194;2023-10-19T17:24:50;6.85;;;2.35;;
34876;SDS011;21086;44.780;17.194;2023-10-19T17:27:37;6.15;;;2.50;;
34876;SDS011;21086;44.780;17.194;2023-10-19T17:30:24;3.67;;;1.70;;
34876;SDS011;21086;44.780;17.194;2023-10-19T17:33:12;5.43;;;2.13;;
34876;SDS011;21086;44.780;17.194;2023-10-19T17:35:59;4.90;;;1.45;;
34876;SDS011;21086;44.780;17.194;2023-10-19T17:38:47;3.80;;;1.35;;
34876;SDS011;21086;44.780;17.194;2023-10-19T17:41:34;3.38;;;1.67;;
34876;SDS011;21086;44.780;17.194;2023-10-19T17:44:21;5.97;;;2.05;;